createdAt,value
2017-03-20T00:00:27.857Z,33.44
2017-03-20T00:01:38.423Z,33.53
2017-03-20T00:02:48.716Z,32.97
2017-03-20T00:03:59.031Z,32.86
2017-03-20T00:05:09.345Z,33.44
2017-03-20T00:06:19.682Z,33.05
2017-03-20T00:07:30.284Z,33.15
2017-03-20T00:08:40.615Z,33.53
2017-03-20T00:09:50.924Z,33.72
2017-03-20T00:11:00.913Z,33.44
2017-03-20T00:12:11.236Z,33.44
2017-03-20T00:13:21.794Z,33.44
2017-03-20T00:14:32.109Z,33.53
2017-03-20T00:15:42.411Z,33.44
2017-03-20T00:16:52.388Z,33.44
2017-03-20T00:18:02.702Z,33.62
2017-03-20T00:19:13.259Z,33.44
2017-03-20T00:20:23.561Z,33.72
2017-03-20T00:21:33.850Z,33.62
2017-03-20T00:22:44.190Z,33.45
2017-03-20T00:23:54.191Z,33.44
2017-03-20T00:25:04.740Z,33.91
2017-03-20T00:26:15.048Z,33.91
2017-03-20T00:27:25.345Z,33.82
2017-03-20T00:28:35.655Z,33.62
2017-03-20T00:29:45.642Z,33.72
2017-03-20T00:30:55.892Z,33.82
2017-03-20T00:32:06.222Z,33.82
2017-03-20T00:33:16.214Z,33.82
2017-03-20T00:34:25.882Z,33.64
2017-03-20T00:35:36.227Z,33.91
2017-03-20T00:36:46.784Z,33.72
2017-03-20T00:37:57.094Z,33.82
2017-03-20T00:39:07.083Z,33.72
2017-03-20T00:40:17.392Z,33.62
2017-03-20T00:41:27.065Z,34.11
2017-03-20T00:42:37.315Z,33.62
2017-03-20T00:43:47.322Z,33.82
2017-03-20T00:44:57.313Z,33.45
2017-03-20T00:46:07.617Z,34.11
2017-03-20T00:47:17.933Z,33.62
2017-03-20T00:48:28.497Z,34.2
2017-03-20T00:49:38.177Z,33.72
2017-03-20T00:50:48.477Z,34.11
2017-03-20T00:51:58.509Z,33.91
2017-03-20T00:53:08.807Z,33.62
2017-03-20T00:54:19.371Z,34.01
2017-03-20T00:55:29.683Z,33.82
2017-03-20T00:56:39.661Z,34.2
2017-03-20T00:57:49.958Z,33.72
2017-03-20T00:59:00.249Z,34.2
2017-03-20T01:00:10.798Z,34.11
2017-03-20T01:01:21.096Z,33.62
2017-03-20T01:02:31.402Z,33.64
2017-03-20T01:03:41.701Z,33.91
2017-03-20T01:04:52.014Z,34.01
2017-03-20T01:06:02.288Z,34.11
2017-03-20T01:07:12.287Z,34.01
2017-03-20T01:08:22.600Z,34.01
2017-03-20T01:09:32.593Z,33.91
2017-03-20T01:10:42.579Z,34.11
2017-03-20T01:11:52.806Z,33.53
2017-03-20T01:13:03.105Z,33.62
2017-03-20T01:14:13.416Z,34.03
2017-03-20T01:15:23.714Z,33.91
2017-03-20T01:16:34.045Z,33.91
2017-03-20T01:17:44.598Z,34.01
2017-03-20T01:18:54.910Z,34.11
2017-03-20T01:20:04.903Z,33.91
2017-03-20T01:21:15.209Z,33.64
2017-03-20T01:22:25.509Z,34.12
2017-03-20T01:23:35.837Z,34.01
2017-03-20T01:24:46.158Z,34.01
2017-03-20T01:25:56.132Z,34.01
2017-03-20T01:27:05.815Z,34.01
2017-03-20T01:28:16.129Z,34.01
2017-03-20T01:29:26.413Z,33.91
2017-03-20T01:30:36.093Z,34.03
2017-03-20T01:31:46.403Z,34.01
2017-03-20T01:32:56.705Z,34.01
2017-03-20T01:34:07.014Z,34.03
2017-03-20T01:35:17.277Z,34.11
2017-03-20T01:36:27.604Z,34.01
2017-03-20T01:37:37.913Z,34.11
2017-03-20T01:38:47.607Z,34.22
2017-03-20T01:39:57.911Z,34.03
2017-03-20T01:41:08.505Z,33.91
2017-03-20T01:42:18.795Z,34.12
2017-03-20T01:43:28.795Z,34.2
2017-03-20T01:44:39.105Z,34.3
2017-03-20T01:45:49.410Z,34.3
2017-03-20T01:47:00.160Z,34.31
2017-03-20T01:48:10.148Z,34.2
2017-03-20T01:49:21.159Z,33.91
2017-03-20T01:50:31.462Z,34.22
2017-03-20T01:51:41.759Z,34.2
2017-03-20T01:52:52.360Z,34.01
2017-03-20T01:54:02.365Z,34.31
2017-03-20T01:55:12.659Z,34.2
2017-03-20T01:56:22.958Z,34.12
2017-03-20T01:57:33.265Z,34.39
2017-03-20T01:58:43.559Z,34.51
2017-03-20T01:59:53.864Z,34.22
2017-03-20T02:01:04.167Z,34.3
2017-03-20T02:02:14.455Z,34.59
2017-03-20T02:03:24.765Z,34.3
2017-03-20T02:04:35.319Z,34.3
2017-03-20T02:05:44.988Z,34.3
2017-03-20T02:06:55.291Z,33.93
2017-03-20T02:08:05.600Z,34.39
2017-03-20T02:09:15.911Z,34.31
2017-03-20T02:10:26.202Z,34.2
2017-03-20T02:11:36.494Z,34.22
2017-03-20T02:12:46.797Z,34.31
2017-03-20T02:13:56.788Z,34.31
2017-03-20T02:15:06.762Z,34.12
2017-03-20T02:16:17.309Z,34.22
2017-03-20T02:17:27.306Z,34.41
2017-03-20T02:18:37.610Z,34.22
2017-03-20T02:19:47.595Z,34.22
2017-03-20T02:20:57.887Z,34.12
2017-03-20T02:22:08.442Z,34.41
2017-03-20T02:23:18.430Z,34.31
2017-03-20T02:24:28.727Z,34.22
2017-03-20T02:25:39.029Z,34.22
2017-03-20T02:26:49.321Z,34.51
2017-03-20T02:27:59.552Z,34.22
2017-03-20T02:29:09.869Z,34.31
2017-03-20T02:30:20.173Z,34.3
2017-03-20T02:31:30.493Z,34.11
2017-03-20T02:32:40.819Z,34.22
2017-03-20T02:33:51.366Z,33.93
2017-03-20T02:35:01.673Z,34.22
2017-03-20T02:36:11.974Z,34.31
2017-03-20T02:37:22.298Z,34.51
2017-03-20T02:38:32.603Z,34.31
2017-03-20T02:39:42.837Z,34.41
2017-03-20T02:40:52.826Z,34.22
2017-03-20T02:42:03.122Z,34.3
2017-03-20T02:43:13.414Z,34.51
2017-03-20T02:44:23.798Z,34.2
2017-03-20T02:45:34.396Z,34.31
2017-03-20T02:46:44.682Z,34.31
2017-03-20T02:47:54.977Z,34.22
2017-03-20T02:49:04.963Z,34.12
2017-03-20T02:50:15.265Z,34.31
2017-03-20T02:51:25.808Z,34.41
2017-03-20T02:52:35.786Z,34.12
2017-03-20T02:53:45.469Z,34.22
2017-03-20T02:54:55.463Z,34.41
2017-03-20T02:56:05.770Z,34.31
2017-03-20T02:57:16.339Z,34.2
2017-03-20T02:58:27.290Z,34.31
2017-03-20T02:59:37.588Z,34.12
2017-03-20T03:00:47.881Z,34.22
2017-03-20T03:01:57.863Z,34.22
2017-03-20T03:03:08.401Z,34.31
2017-03-20T03:04:18.716Z,34.22
2017-03-20T03:05:29.024Z,34.61
2017-03-20T03:06:39.313Z,34.31
2017-03-20T03:07:49.306Z,34.22
2017-03-20T03:08:59.928Z,34.12
2017-03-20T03:10:10.231Z,34.31
2017-03-20T03:11:20.528Z,34.22
2017-03-20T03:12:30.825Z,34.22
2017-03-20T03:13:41.134Z,34.22
2017-03-20T03:14:51.380Z,34.12
2017-03-20T03:16:01.684Z,34.31
2017-03-20T03:17:11.360Z,34.22
2017-03-20T03:18:21.661Z,34.22
2017-03-20T03:19:31.965Z,34.22
2017-03-20T03:20:42.193Z,34.22
2017-03-20T03:21:52.496Z,34.51
2017-03-20T03:23:02.804Z,34.41
2017-03-20T03:24:13.102Z,34.41
2017-03-20T03:25:23.402Z,34.12
2017-03-20T03:26:34.003Z,34.22
2017-03-20T03:27:44.314Z,34.22
2017-03-20T03:28:54.628Z,34.51
2017-03-20T03:30:04.928Z,34.12
2017-03-20T03:31:15.106Z,34.22
2017-03-20T03:32:25.693Z,34.22
2017-03-20T03:33:35.994Z,34.22
2017-03-20T03:34:46.297Z,34.3
2017-03-20T03:35:56.591Z,34.22
2017-03-20T03:37:06.890Z,34.22
2017-03-20T03:38:16.815Z,34.61
2017-03-20T03:39:27.126Z,34.31
2017-03-20T03:40:37.424Z,34.22
2017-03-20T03:41:47.711Z,34.12
2017-03-20T03:42:57.701Z,34.49
2017-03-20T03:44:08.247Z,34.31
2017-03-20T03:45:18.547Z,34.22
2017-03-20T03:46:28.848Z,34.12
2017-03-20T03:47:39.149Z,34.3
2017-03-20T03:48:48.849Z,34.22
2017-03-20T03:49:59.644Z,34.01
2017-03-20T03:51:09.936Z,34.51
2017-03-20T03:52:20.232Z,34.31
2017-03-20T03:53:30.539Z,34.31
2017-03-20T03:54:40.529Z,34.31
2017-03-20T03:55:51.078Z,34.51
2017-03-20T03:57:01.060Z,34.31
2017-03-20T03:58:11.049Z,34.31
2017-03-20T03:59:21.364Z,34.31
2017-03-20T04:00:31.037Z,34.41
2017-03-20T04:01:41.597Z,34.41
2017-03-20T04:02:51.277Z,34.31
2017-03-20T04:04:01.581Z,34.31
2017-03-20T04:05:11.885Z,34.12
2017-03-20T04:06:22.188Z,34.2
2017-03-20T04:07:32.431Z,34.22
2017-03-20T04:08:42.724Z,34.22
2017-03-20T04:09:52.710Z,34.51
2017-03-20T04:11:02.707Z,34.3
2017-03-20T04:12:12.706Z,34.2
2017-03-20T04:13:23.251Z,34.2
2017-03-20T04:14:33.556Z,34.2
2017-03-20T04:15:43.545Z,34.31
2017-03-20T04:16:53.840Z,34.22
2017-03-20T04:18:04.141Z,34.11
2017-03-20T04:19:14.743Z,34.12
2017-03-20T04:20:24.733Z,34.11
2017-03-20T04:21:34.714Z,34.3
2017-03-20T04:22:45.015Z,34.3
2017-03-20T04:23:55.331Z,34.22
2017-03-20T04:25:05.635Z,34.22
2017-03-20T04:26:15.962Z,34.3
2017-03-20T04:27:26.249Z,34.22
2017-03-20T04:28:35.925Z,34.51
2017-03-20T04:29:46.240Z,34.51
2017-03-20T04:30:56.834Z,34.61
2017-03-20T04:32:07.134Z,34.51
2017-03-20T04:33:17.427Z,34.51
2017-03-20T04:34:27.732Z,34.51
2017-03-20T04:35:37.719Z,34.39
2017-03-20T04:36:48.272Z,34.41
2017-03-20T04:37:58.258Z,34.51
2017-03-20T04:39:08.574Z,34.51
2017-03-20T04:40:18.877Z,34.51
2017-03-20T04:41:29.182Z,34.51
2017-03-20T04:42:39.775Z,34.31
2017-03-20T04:43:50.038Z,34.51
2017-03-20T04:45:00.377Z,34.61
2017-03-20T04:46:10.669Z,34.41
2017-03-20T04:47:20.973Z,34.49
2017-03-20T04:48:31.527Z,34.51
2017-03-20T04:49:41.828Z,34.51
2017-03-20T04:50:52.122Z,34.51
2017-03-20T04:52:02.428Z,34.41
2017-03-20T04:53:12.118Z,34.49
2017-03-20T04:54:22.724Z,34.41
2017-03-20T04:55:33.026Z,34.31
2017-03-20T04:56:43.331Z,34.3
2017-03-20T04:57:53.629Z,34.49
2017-03-20T04:59:03.933Z,34.31
2017-03-20T05:00:14.482Z,34.51
2017-03-20T05:01:24.777Z,34.49
2017-03-20T05:02:35.088Z,34.31
2017-03-20T05:03:45.098Z,34.39
2017-03-20T05:04:55.402Z,34.41
2017-03-20T05:06:05.955Z,34.2
2017-03-20T05:07:16.266Z,34.49
2017-03-20T05:08:26.554Z,34.49
2017-03-20T05:09:36.855Z,34.41
2017-03-20T05:10:46.832Z,34.31
2017-03-20T05:11:57.427Z,34.41
2017-03-20T05:13:07.728Z,34.51
2017-03-20T05:14:18.045Z,34.68
2017-03-20T05:15:28.351Z,34.41
2017-03-20T05:16:38.672Z,34.51
2017-03-20T05:17:49.222Z,34.61
2017-03-20T05:18:59.530Z,34.39
2017-03-20T05:20:09.825Z,34.61
2017-03-20T05:21:20.127Z,34.7
2017-03-20T05:22:30.116Z,34.61
2017-03-20T05:23:40.688Z,34.51
2017-03-20T05:24:50.999Z,34.61
2017-03-20T05:26:00.995Z,34.7
2017-03-20T05:27:11.312Z,34.99
2017-03-20T05:28:21.618Z,35.28
2017-03-20T05:29:32.185Z,35.28
2017-03-20T05:30:42.176Z,35.28
2017-03-20T05:31:52.519Z,34.97
2017-03-20T05:33:02.853Z,35.08
2017-03-20T05:34:13.159Z,34.99
2017-03-20T05:35:23.767Z,35.08
2017-03-20T05:36:34.064Z,35.08
2017-03-20T05:37:44.057Z,35.28
2017-03-20T05:38:54.368Z,35.28
2017-03-20T05:40:04.384Z,35.18
2017-03-20T05:41:14.952Z,35.47
2017-03-20T05:42:25.247Z,35.28
2017-03-20T05:43:35.552Z,35.57
2017-03-20T05:44:45.853Z,35.47
2017-03-20T05:45:56.170Z,35.18
2017-03-20T05:47:06.763Z,35.08
2017-03-20T05:48:16.751Z,35.28
2017-03-20T05:49:27.082Z,35.28
2017-03-20T05:50:37.062Z,35.18
2017-03-20T05:51:47.034Z,35.47
2017-03-20T05:52:57.357Z,35.57
2017-03-20T05:54:07.680Z,35.47
2017-03-20T05:55:17.049Z,35.18
2017-03-20T05:56:27.053Z,35.28
2017-03-20T05:57:37.360Z,36.33
2017-03-20T05:58:47.927Z,36.43
2017-03-20T05:59:57.927Z,36.72
2017-03-20T06:01:08.233Z,36.72
2017-03-20T06:02:18.534Z,36.72
2017-03-20T06:03:28.836Z,36.91
2017-03-20T06:04:39.456Z,36.72
2017-03-20T06:05:49.776Z,36.74
2017-03-20T06:07:00.089Z,37.2
2017-03-20T06:08:10.074Z,37.01
2017-03-20T06:09:20.386Z,37.01
2017-03-20T06:10:31.347Z,37.39
2017-03-20T06:11:41.659Z,37.49
2017-03-20T06:12:51.680Z,37.41
2017-03-20T06:14:01.987Z,37.39
2017-03-20T06:15:12.314Z,37.39
2017-03-20T06:16:22.912Z,37.02
2017-03-20T06:17:33.224Z,37.12
2017-03-20T06:18:43.228Z,37.01
2017-03-20T06:19:53.565Z,37.39
2017-03-20T06:21:03.882Z,37.2
2017-03-20T06:22:14.497Z,37.12
2017-03-20T06:23:24.809Z,37.22
2017-03-20T06:24:35.135Z,37.12
2017-03-20T06:25:45.441Z,37.02
2017-03-20T06:26:55.728Z,37.02
2017-03-20T06:28:06.016Z,37.51
2017-03-20T06:29:16.371Z,37.41
2017-03-20T06:30:26.694Z,37.51
2017-03-20T06:31:36.999Z,37.6
2017-03-20T06:32:46.985Z,37.6
2017-03-20T06:33:57.539Z,37.12
2017-03-20T06:35:07.846Z,37.41
2017-03-20T06:36:18.146Z,37.49
2017-03-20T06:37:28.167Z,37.6
2017-03-20T06:38:38.157Z,37.59
2017-03-20T06:39:48.726Z,37.41
2017-03-20T06:40:58.768Z,37.41
2017-03-20T06:42:08.755Z,37.41
2017-03-20T06:43:19.073Z,37.6
2017-03-20T06:44:29.078Z,37.32
2017-03-20T06:45:39.690Z,37.6
2017-03-20T06:46:49.699Z,37.7
2017-03-20T06:48:00.029Z,37.6
2017-03-20T06:49:10.357Z,37.2
2017-03-20T06:50:20.348Z,37.51
2017-03-20T06:51:30.923Z,37.7
2017-03-20T06:52:41.298Z,38.09
2017-03-20T06:53:51.636Z,38.09
2017-03-20T06:55:02.077Z,37.99
2017-03-20T06:56:12.415Z,37.89
2017-03-20T06:57:22.726Z,37.32
2017-03-20T06:58:33.050Z,37.02
2017-03-20T06:59:43.366Z,37.02
2017-03-20T07:00:53.386Z,36.83
2017-03-20T07:02:03.712Z,36.72
2017-03-20T07:03:14.288Z,37.1
2017-03-20T07:04:24.627Z,36.93
2017-03-20T07:05:34.950Z,36.83
2017-03-20T07:06:45.307Z,37.12
2017-03-20T07:07:55.609Z,36.83
2017-03-20T07:09:06.199Z,36.93
2017-03-20T07:10:16.571Z,37.02
2017-03-20T07:11:26.970Z,37.22
2017-03-20T07:12:37.300Z,36.64
2017-03-20T07:13:47.619Z,36.64
2017-03-20T07:14:58.192Z,36.82
2017-03-20T07:16:08.519Z,37.12
2017-03-20T07:17:18.543Z,37.22
2017-03-20T07:18:28.878Z,37.12
2017-03-20T07:19:39.220Z,37.49
2017-03-20T07:20:49.920Z,37.41
2017-03-20T07:22:00.387Z,37.49
2017-03-20T07:23:10.739Z,37.51
2017-03-20T07:24:21.097Z,37.51
2017-03-20T07:25:31.500Z,37.22
2017-03-20T07:26:42.141Z,37.6
2017-03-20T07:27:51.824Z,37.32
2017-03-20T07:29:01.866Z,37.02
2017-03-20T07:30:11.914Z,37.02
2017-03-20T07:31:22.301Z,37.02
2017-03-20T07:32:32.906Z,36.93
2017-03-20T07:33:43.318Z,36.83
2017-03-20T07:34:53.645Z,36.64
2017-03-20T07:36:03.679Z,36.83
2017-03-20T07:37:14.003Z,36.83
2017-03-20T07:38:23.641Z,36.74
2017-03-20T07:39:33.959Z,36.74
2017-03-20T07:40:44.552Z,36.64
2017-03-20T07:41:54.935Z,36.45
2017-03-20T07:43:04.631Z,36.64
2017-03-20T07:44:15.267Z,36.64
2017-03-20T07:45:25.623Z,36.54
2017-03-20T07:46:35.637Z,36.54
2017-03-20T07:47:45.651Z,36.93
2017-03-20T07:48:56.034Z,36.74
2017-03-20T07:50:06.687Z,36.16
2017-03-20T07:51:17.020Z,36.74
2017-03-20T07:52:27.351Z,36.35
2017-03-20T07:53:37.703Z,36.64
2017-03-20T07:54:48.080Z,36.64
2017-03-20T07:55:58.793Z,36.74
2017-03-20T07:57:09.388Z,36.83
2017-03-20T07:58:19.746Z,36.54
2017-03-20T07:59:30.084Z,36.74
2017-03-20T08:00:40.441Z,36.45
2017-03-20T08:01:51.225Z,36.54
2017-03-20T08:03:01.546Z,36.54
2017-03-20T08:04:11.850Z,36.54
2017-03-20T08:05:22.173Z,36.54
2017-03-20T08:06:32.539Z,36.54
2017-03-20T08:07:43.139Z,36.54
2017-03-20T08:08:53.160Z,36.16
2017-03-20T08:10:03.468Z,36.35
2017-03-20T08:11:13.779Z,36.25
2017-03-20T08:12:23.767Z,36.16
2017-03-20T08:13:34.026Z,36.16
2017-03-20T08:14:44.112Z,36.45
2017-03-20T08:15:54.675Z,36.16
2017-03-20T08:17:04.819Z,36.25
2017-03-20T08:18:15.331Z,36.35
2017-03-20T08:19:26.196Z,36.35
2017-03-20T08:20:36.687Z,36.45
2017-03-20T08:21:47.039Z,36.25
2017-03-20T08:22:57.171Z,36.25
2017-03-20T08:24:07.578Z,36.25
2017-03-20T08:25:18.195Z,36.35
2017-03-20T08:26:27.874Z,36.16
2017-03-20T08:27:38.192Z,36.35
2017-03-20T08:28:48.525Z,36.16
2017-03-20T08:29:58.857Z,36.25
2017-03-20T08:31:09.427Z,36.54
2017-03-20T08:32:19.730Z,36.16
2017-03-20T08:33:30.051Z,36.16
2017-03-20T08:34:40.053Z,36.35
2017-03-20T08:35:50.418Z,36.25
2017-03-20T08:37:00.979Z,36.07
2017-03-20T08:38:11.306Z,36.35
2017-03-20T08:39:21.629Z,36.16
2017-03-20T08:40:31.929Z,36.07
2017-03-20T08:41:42.230Z,36.16
2017-03-20T08:42:52.524Z,36.16
2017-03-20T08:44:02.513Z,36.35
2017-03-20T08:45:12.842Z,36.25
2017-03-20T08:46:22.844Z,36.16
2017-03-20T08:47:33.168Z,36.16
2017-03-20T08:48:43.475Z,35.77
2017-03-20T08:49:53.804Z,36.16
2017-03-20T08:51:04.204Z,36.25
2017-03-20T08:52:14.542Z,36.16
2017-03-20T08:53:24.585Z,36.25
2017-03-20T08:54:35.154Z,36.07
2017-03-20T08:55:45.501Z,36.16
2017-03-20T08:56:55.750Z,35.97
2017-03-20T08:58:06.108Z,36.74
2017-03-20T08:59:16.442Z,36.45
2017-03-20T09:00:27.076Z,36.83
2017-03-20T09:01:37.391Z,36.83
2017-03-20T09:02:47.716Z,36.93
2017-03-20T09:03:58.036Z,36.74
2017-03-20T09:05:08.359Z,36.76
2017-03-20T09:06:18.632Z,36.66
2017-03-20T09:07:28.972Z,36.66
2017-03-20T09:08:39.308Z,36.76
2017-03-20T09:09:49.667Z,36.54
2017-03-20T09:11:00.083Z,36.16
2017-03-20T09:12:10.723Z,36.74
2017-03-20T09:13:21.053Z,36.35
2017-03-20T09:14:31.417Z,36.25
2017-03-20T09:15:41.748Z,36.76
2017-03-20T09:16:52.083Z,36.76
2017-03-20T09:18:02.649Z,36.47
2017-03-20T09:19:13.416Z,36.18
2017-03-20T09:20:23.802Z,36.27
2017-03-20T09:21:34.111Z,36.66
2017-03-20T09:22:44.106Z,36.18
2017-03-20T09:23:54.682Z,36.76
2017-03-20T09:25:04.720Z,36.47
2017-03-20T09:26:14.733Z,36.47
2017-03-20T09:27:24.763Z,36.18
2017-03-20T09:28:34.798Z,36.27
2017-03-20T09:29:45.520Z,36.47
2017-03-20T09:30:55.535Z,36.18
2017-03-20T09:32:05.901Z,36.27
2017-03-20T09:33:16.246Z,36.27
2017-03-20T09:34:26.576Z,36.37
2017-03-20T09:35:37.153Z,36.18
2017-03-20T09:36:47.200Z,36.18
2017-03-20T09:37:57.817Z,36.18
2017-03-20T09:39:07.834Z,36.37
2017-03-20T09:40:17.859Z,36.18
2017-03-20T09:41:28.435Z,36.18
2017-03-20T09:42:38.468Z,36.27
2017-03-20T09:43:48.810Z,36.27
2017-03-20T09:44:59.146Z,36.08
2017-03-20T09:46:09.151Z,36.37
2017-03-20T09:47:19.718Z,36.18
2017-03-20T09:48:29.712Z,36.18
2017-03-20T09:49:39.705Z,36.18
2017-03-20T09:50:50.026Z,36.18
2017-03-20T09:52:00.332Z,36.08
2017-03-20T09:53:10.972Z,35.89
2017-03-20T09:54:21.295Z,35.99
2017-03-20T09:55:31.625Z,35.99
2017-03-20T09:56:41.949Z,36.18
2017-03-20T09:57:52.567Z,35.7
2017-03-20T09:59:03.146Z,35.89
2017-03-20T10:00:13.162Z,35.99
2017-03-20T10:01:23.515Z,35.99
2017-03-20T10:02:33.524Z,35.99
2017-03-20T10:03:44.163Z,35.79
2017-03-20T10:04:54.951Z,35.7
2017-03-20T10:06:05.336Z,35.7
2017-03-20T10:07:15.641Z,35.79
2017-03-20T10:08:25.974Z,35.5
2017-03-20T10:09:36.330Z,35.89
2017-03-20T10:10:46.989Z,35.5
2017-03-20T10:11:57.341Z,35.6
2017-03-20T10:13:07.679Z,35.7
2017-03-20T10:14:17.712Z,35.6
2017-03-20T10:15:28.021Z,35.5
2017-03-20T10:16:38.316Z,35.6
2017-03-20T10:17:48.672Z,35.22
2017-03-20T10:18:58.715Z,35.5
2017-03-20T10:20:08.726Z,35.7
2017-03-20T10:21:18.730Z,35.6
2017-03-20T10:22:29.353Z,35.5
2017-03-20T10:23:39.677Z,35.41
2017-03-20T10:24:50.019Z,35.7
2017-03-20T10:26:00.024Z,35.6
2017-03-20T10:27:09.401Z,35.79
2017-03-20T10:28:19.969Z,35.99
2017-03-20T10:29:30.083Z,35.79
2017-03-20T10:30:40.415Z,35.7
2017-03-20T10:31:50.729Z,35.6
2017-03-20T10:33:01.084Z,35.6
2017-03-20T10:34:11.689Z,35.6
2017-03-20T10:35:22.053Z,35.5
2017-03-20T10:36:32.428Z,35.22
2017-03-20T10:37:42.761Z,35.31
2017-03-20T10:38:53.092Z,35.41
2017-03-20T10:40:03.359Z,35.22
2017-03-20T10:41:13.718Z,35.12
2017-03-20T10:42:24.092Z,35.31
2017-03-20T10:43:34.422Z,35.12
2017-03-20T10:44:44.754Z,35.31
2017-03-20T10:45:55.033Z,35.12
2017-03-20T10:47:05.398Z,35.22
2017-03-20T10:48:15.720Z,35.31
2017-03-20T10:49:26.040Z,35.12
2017-03-20T10:50:36.358Z,35.12
2017-03-20T10:51:46.944Z,35.12
2017-03-20T10:52:57.256Z,35.22
2017-03-20T10:54:07.584Z,35.31
2017-03-20T10:55:17.582Z,35.31
2017-03-20T10:56:27.276Z,35.22
2017-03-20T10:57:37.837Z,35.22
2017-03-20T10:58:48.179Z,35.22
2017-03-20T10:59:58.512Z,35.12
2017-03-20T11:01:08.503Z,35.02
2017-03-20T11:02:18.200Z,35.12
2017-03-20T11:03:28.752Z,35.22
2017-03-20T11:04:38.779Z,34.92
2017-03-20T11:05:49.104Z,35.22
2017-03-20T11:06:58.811Z,34.74
2017-03-20T11:08:09.386Z,34.54
2017-03-20T11:09:20.011Z,35.22
2017-03-20T11:10:30.380Z,34.64
2017-03-20T11:11:40.717Z,34.74
2017-03-20T11:12:51.053Z,34.54
2017-03-20T11:14:01.375Z,34.74
2017-03-20T11:15:11.384Z,34.74
2017-03-20T11:16:21.698Z,34.64
2017-03-20T11:17:32.007Z,34.64
2017-03-20T11:18:42.030Z,34.74
2017-03-20T11:19:52.374Z,34.64
2017-03-20T11:21:03.004Z,34.64
2017-03-20T11:22:12.991Z,35.12
2017-03-20T11:23:23.341Z,35.22
2017-03-20T11:24:33.664Z,35.22
2017-03-20T11:25:44.015Z,35.24
2017-03-20T11:26:54.272Z,35.33
2017-03-20T11:28:04.619Z,35.24
2017-03-20T11:29:14.939Z,35.24
2017-03-20T11:30:25.282Z,35.14
2017-03-20T11:31:35.344Z,35.14
2017-03-20T11:32:45.971Z,35.04
2017-03-20T11:33:55.991Z,35.14
2017-03-20T11:35:06.476Z,35.14
2017-03-20T11:36:16.799Z,35.14
2017-03-20T11:37:27.115Z,35.14
2017-03-20T11:38:37.095Z,35.24
2017-03-20T11:39:47.404Z,35.14
2017-03-20T11:40:57.743Z,34.84
2017-03-20T11:42:07.792Z,34.75
2017-03-20T11:43:17.818Z,34.75
2017-03-20T11:44:28.457Z,34.46
2017-03-20T11:45:38.783Z,34.37
2017-03-20T11:46:49.120Z,34.37
2017-03-20T11:47:59.466Z,34.37
2017-03-20T11:49:09.811Z,34.56
2017-03-20T11:50:20.453Z,34.27
2017-03-20T11:51:30.785Z,34.27
2017-03-20T11:52:40.785Z,34.27
2017-03-20T11:53:50.787Z,34.37
2017-03-20T11:55:01.103Z,34.37
2017-03-20T11:56:11.668Z,34.27
2017-03-20T11:57:22.000Z,34.37
2017-03-20T11:58:32.019Z,34.17
2017-03-20T11:59:42.371Z,34.17
2017-03-20T12:00:52.377Z,34.27
2017-03-20T12:02:02.686Z,34.27
2017-03-20T12:03:13.037Z,34.17
2017-03-20T12:04:23.385Z,34.17
2017-03-20T12:05:33.700Z,34.27
2017-03-20T12:06:44.005Z,33.98
2017-03-20T12:07:54.588Z,34.17
2017-03-20T12:09:04.903Z,34.08
2017-03-20T12:10:15.217Z,34.17
2017-03-20T12:11:25.207Z,34.08
2017-03-20T12:12:35.520Z,34.08
2017-03-20T12:13:45.782Z,34.27
2017-03-20T12:14:56.096Z,34.17
2017-03-20T12:16:06.107Z,34.08
2017-03-20T12:17:16.423Z,34.27
2017-03-20T12:18:26.776Z,34.27
2017-03-20T12:19:37.066Z,34.08
2017-03-20T12:20:46.742Z,34.17
2017-03-20T12:21:57.068Z,34.08
2017-03-20T12:23:06.758Z,33.98
2017-03-20T12:24:17.082Z,34.08
2017-03-20T12:25:27.660Z,34.17
2017-03-20T12:26:37.976Z,33.69
2017-03-20T12:27:47.682Z,34.27
2017-03-20T12:28:57.679Z,33.69
2017-03-20T12:30:07.965Z,34.27
2017-03-20T12:31:18.527Z,33.98
2017-03-20T12:32:28.839Z,33.59
2017-03-20T12:33:39.167Z,34.17
2017-03-20T12:34:49.475Z,34.17
2017-03-20T12:35:59.494Z,34.08
2017-03-20T12:37:10.052Z,34.08
2017-03-20T12:38:20.381Z,34.08
2017-03-20T12:39:30.700Z,34.08
2017-03-20T12:40:40.721Z,34.17
2017-03-20T12:41:51.032Z,33.98
2017-03-20T12:43:01.658Z,34.17
2017-03-20T12:44:11.664Z,34.27
2017-03-20T12:45:22.031Z,34.27
2017-03-20T12:46:32.347Z,34.17
2017-03-20T12:47:42.697Z,34.27
2017-03-20T12:48:53.005Z,34.27
2017-03-20T12:50:03.723Z,34.27
2017-03-20T12:51:14.074Z,34.46
2017-03-20T12:52:24.405Z,34.27
2017-03-20T12:53:34.738Z,34.27
2017-03-20T12:54:45.030Z,34.27
2017-03-20T12:55:55.356Z,34.37
2017-03-20T12:57:05.036Z,34.27
2017-03-20T12:58:15.353Z,34.27
2017-03-20T12:59:25.675Z,34.37
2017-03-20T13:00:36.259Z,34.37
2017-03-20T13:01:46.276Z,34.66
2017-03-20T13:02:56.705Z,34.66
2017-03-20T13:04:06.707Z,34.46
2017-03-20T13:05:16.706Z,34.56
2017-03-20T13:06:26.958Z,34.75
2017-03-20T13:07:36.966Z,35.14
2017-03-20T13:08:47.199Z,35.14
2017-03-20T13:09:57.544Z,35.33
2017-03-20T13:11:08.063Z,35.33
2017-03-20T13:12:18.668Z,35.24
2017-03-20T13:13:28.710Z,35.14
2017-03-20T13:14:39.057Z,35.33
2017-03-20T13:15:49.400Z,35.62
2017-03-20T13:16:59.734Z,35.52
2017-03-20T13:18:09.980Z,35.62
2017-03-20T13:19:19.991Z,35.62
2017-03-20T13:20:30.325Z,35.62
2017-03-20T13:21:40.651Z,35.71
2017-03-20T13:22:51.022Z,35.71
2017-03-20T13:24:01.640Z,36
2017-03-20T13:25:12.008Z,36
2017-03-20T13:26:22.403Z,35.91
2017-03-20T13:27:32.706Z,35.91
2017-03-20T13:28:43.035Z,35.91
2017-03-20T13:29:53.337Z,36.19
2017-03-20T13:31:03.672Z,36.1
2017-03-20T13:32:13.990Z,36
2017-03-20T13:33:24.293Z,36.19
2017-03-20T13:34:34.622Z,36.1
2017-03-20T13:35:45.237Z,35.81
2017-03-20T13:36:55.252Z,36.1
2017-03-20T13:38:05.282Z,36.1
2017-03-20T13:39:15.296Z,36
2017-03-20T13:40:25.644Z,36
2017-03-20T13:41:35.954Z,35.81
2017-03-20T13:42:46.506Z,35.52
2017-03-20T13:43:56.969Z,35.71
2017-03-20T13:45:07.286Z,35.73
2017-03-20T13:46:17.278Z,35.64
2017-03-20T13:47:27.666Z,35.33
2017-03-20T13:48:38.274Z,35.52
2017-03-20T13:49:48.725Z,35.25
2017-03-20T13:50:59.306Z,35.42
2017-03-20T13:52:09.318Z,35.06
2017-03-20T13:53:19.963Z,35.16
2017-03-20T13:54:30.301Z,35.24
2017-03-20T13:55:40.657Z,34.75
2017-03-20T13:56:50.743Z,34.56
2017-03-20T13:58:01.073Z,34.56
2017-03-20T13:59:11.347Z,34.48
2017-03-20T14:00:21.353Z,34.27
2017-03-20T14:01:31.679Z,34
2017-03-20T14:02:41.999Z,34.19
2017-03-20T14:03:52.345Z,33.81
2017-03-20T14:05:02.981Z,33.91
2017-03-20T14:06:13.717Z,33.91
2017-03-20T14:07:23.724Z,34
2017-03-20T14:08:33.731Z,33.91
2017-03-20T14:09:44.113Z,33.91
2017-03-20T14:10:54.364Z,34
2017-03-20T14:12:04.399Z,34
2017-03-20T14:13:14.729Z,33.91
2017-03-20T14:14:25.078Z,33.91
2017-03-20T14:15:35.405Z,33.81
2017-03-20T14:16:45.987Z,33.81
2017-03-20T14:17:56.306Z,33.69
2017-03-20T14:19:06.338Z,33.71
2017-03-20T14:20:16.357Z,33.89
2017-03-20T14:21:26.364Z,33.91
2017-03-20T14:22:36.639Z,33.89
2017-03-20T14:23:47.021Z,33.59
2017-03-20T14:24:57.346Z,33.51
2017-03-20T14:26:07.647Z,33.51
2017-03-20T14:27:17.357Z,33.33
2017-03-20T14:28:27.663Z,33.51
2017-03-20T14:29:38.043Z,33.13
2017-03-20T14:30:48.354Z,33.03
2017-03-20T14:31:58.354Z,33.03
2017-03-20T14:33:08.692Z,33.23
2017-03-20T14:34:19.260Z,33.51
2017-03-20T14:35:29.586Z,33.51
2017-03-20T14:36:39.883Z,33.81
2017-03-20T14:37:50.197Z,33.71
2017-03-20T14:39:00.511Z,33.13
2017-03-20T14:40:11.081Z,33.13
2017-03-20T14:41:21.420Z,33.23
2017-03-20T14:42:31.423Z,33.33
2017-03-20T14:43:41.429Z,33.13
2017-03-20T14:44:51.427Z,33.23
2017-03-20T14:46:02.046Z,33.03
2017-03-20T14:47:12.354Z,33.61
2017-03-20T14:48:22.675Z,32.94
2017-03-20T14:49:32.364Z,33.03
2017-03-20T14:50:42.349Z,33.03
2017-03-20T14:51:52.661Z,33.33
2017-03-20T14:53:02.995Z,33.02
2017-03-20T14:54:13.327Z,33.13
2017-03-20T14:55:23.659Z,33.33
2017-03-20T14:56:33.966Z,33.02
2017-03-20T14:57:44.201Z,33.02
2017-03-20T14:58:54.505Z,33.31
2017-03-20T15:00:04.220Z,33.4
2017-03-20T15:01:14.550Z,33.23
2017-03-20T15:02:24.863Z,33.02
2017-03-20T15:03:35.427Z,33.51
2017-03-20T15:04:45.747Z,33.23
2017-03-20T15:05:56.060Z,33.4
2017-03-20T15:07:06.374Z,33.02
2017-03-20T15:08:16.671Z,32.94